Time;durP1;ratioP1;P1;durP2;ratioP2;P2;SDS_P1;SDS_P2;PMS_P1;PMS_P2;Temp;Humidity;BMP_temperature;BMP_pressure;BME280_temperature;BME280_humidity;BME280_pressure;Samples;Min_cycle;Max_cycle;Signal;HPM_P1;HPM_P2
2021/07/29 00:02:25;;;;;;;1.80;1.30;;;20.80;96.60;;;;;;5006074;28;20932;-81
2021/07/29 00:04:51;;;;;;;2.13;1.17;;;20.60;97.00;;;;;;5013770;28;20686;-81
2021/07/29 00:07:17;;;;;;;2.03;1.60;;;20.60;97.60;;;;;;5013457;28;20635;-81
2021/07/29 00:09:46;;;;;;;1.77;1.27;;;20.50;98.20;;;;;;5006320;28;20975;-81
2021/07/29 00:12:12;;;;;;;1.63;1.03;;;20.40;99.20;;;;;;5013190;28;20170;-83
2021/07/29 00:14:38;;;;;;;2.40;1.47;;;20.30;99.40;;;;;;5013732;28;20596;-81
2021/07/29 00:17:09;;;;;;;1.60;1.10;;;20.30;99.90;;;;;;5017085;28;20728;-81
2021/07/29 00:19:35;;;;;;;2.40;2.00;;;20.20;99.90;;;;;;5009619;28;20241;-81
2021/07/29 00:22:01;;;;;;;4.83;1.23;;;20.20;99.90;;;;;;5006157;28;20589;-81
2021/07/29 00:24:26;;;;;;;2.13;1.20;;;20.20;99.90;;;;;;5012824;28;20174;-81
2021/07/29 00:26:52;;;;;;;1.70;1.30;;;20.10;99.90;;;;;;5014621;28;20654;-81
2021/07/29 00:29:18;;;;;;;2.60;1.20;;;20.10;99.90;;;;;;5014565;28;20178;-81
2021/07/29 00:31:43;;;;;;;1.70;1.03;;;20.10;99.90;;;;;;5011688;28;20329;-81
2021/07/29 00:34:09;;;;;;;1.57;0.90;;;20.10;99.90;;;;;;5011859;28;20582;-81
2021/07/29 00:36:35;;;;;;;2.33;1.17;;;20.10;99.90;;;;;;5011753;28;20277;-80
2021/07/29 00:39:02;;;;;;;2.20;0.97;;;20.00;99.90;;;;;;5012571;28;20166;-81
2021/07/29 00:41:27;;;;;;;2.17;1.10;;;20.00;99.90;;;;;;5011850;28;20173;-81
2021/07/29 00:44:01;;;;;;;2.17;1.40;;;20.00;99.90;;;;;;5013187;28;20565;-82
2021/07/29 00:46:28;;;;;;;2.33;1.10;;;20.00;99.90;;;;;;5012351;28;20206;-81
2021/07/29 00:48:55;;;;;;;2.13;1.23;;;20.00;99.90;;;;;;5012847;28;20628;-81
2021/07/29 00:51:21;;;;;;;2.30;1.63;;;20.00;99.90;;;;;;5028233;28;20617;-82
2021/07/29 00:53:47;;;;;;;3.70;1.67;;;20.00;99.90;;;;;;5014725;28;20580;-81
2021/07/29 00:56:13;;;;;;;4.70;1.80;;;20.00;99.90;;;;;;5014435;28;20644;-82
2021/07/29 00:58:39;;;;;;;2.07;1.20;;;20.00;99.90;;;;;;5012248;28;20317;-81
2021/07/29 01:01:05;;;;;;;3.00;1.60;;;19.90;99.90;;;;;;5012322;28;20174;-82
2021/07/29 01:03:30;;;;;;;1.87;1.40;;;19.80;99.90;;;;;;5012381;28;20616;-82
2021/07/29 01:05:56;;;;;;;1.70;1.13;;;19.80;99.90;;;;;;5012422;28;20186;-81
2021/07/29 01:08:22;;;;;;;2.63;1.40;;;19.70;99.90;;;;;;5012086;28;20183;-81
2021/07/29 01:10:48;;;;;;;2.33;1.50;;;19.60;99.90;;;;;;5012466;28;20631;-81
2021/07/29 01:13:13;;;;;;;3.57;1.10;;;19.60;99.90;;;;;;5012358;28;20178;-81
2021/07/29 01:15:39;;;;;;;2.77;1.60;;;19.50;99.90;;;;;;5010803;28;20210;-81
2021/07/29 01:18:05;;;;;;;6.20;2.37;;;19.40;99.90;;;;;;5010766;28;20246;-80
2021/07/29 01:20:31;;;;;;;2.97;2.03;;;19.30;99.90;;;;;;5027541;28;20173;-81
2021/07/29 01:22:56;;;;;;;2.43;1.63;;;19.20;99.90;;;;;;5011678;28;20197;-80
2021/07/29 01:25:22;;;;;;;1.60;1.30;;;19.20;99.90;;;;;;5012101;28;20565;-81
2021/07/29 01:27:48;;;;;;;2.00;1.40;;;19.10;99.90;;;;;;5026915;28;20174;-81
2021/07/29 01:30:14;;;;;;;3.00;1.50;;;19.10;99.90;;;;;;5011802;28;20158;-81
2021/07/29 01:32:40;;;;;;;2.30;1.33;;;19.00;99.90;;;;;;5014481;28;20931;-81
2021/07/29 01:35:10;;;;;;;1.70;1.20;;;18.90;99.90;;;;;;5011950;28;20670;-81
2021/07/29 01:37:45;;;;;;;2.67;1.67;;;18.80;99.90;;;;;;5011819;28;20804;-81
2021/07/29 01:40:11;;;;;;;1.80;1.27;;;18.80;99.90;;;;;;5010803;28;20577;-81
2021/07/29 01:42:37;;;;;;;2.27;1.30;;;18.70;99.90;;;;;;5010633;28;20570;-81
2021/07/29 01:45:03;;;;;;;1.90;1.40;;;18.60;99.90;;;;;;5010817;28;20565;-81
2021/07/29 01:47:28;;;;;;;2.43;1.43;;;18.50;99.90;;;;;;5011708;28;20190;-81
2021/07/29 01:49:54;;;;;;;2.53;1.20;;;18.40;99.90;;;;;;5011492;28;20569;-81
2021/07/29 01:52:20;;;;;;;1.60;1.10;;;18.40;99.90;;;;;;5012125;28;20245;-81
2021/07/29 01:54:46;;;;;;;1.83;1.13;;;18.40;99.90;;;;;;5010403;28;20175;-81
2021/07/29 01:57:11;;;;;;;2.47;1.30;;;18.40;99.90;;;;;;5011685;28;20264;-81
2021/07/29 01:59:37;;;;;;;3.13;1.10;;;18.30;99.90;;;;;;5011325;28;20585;-81
2021/07/29 02:02:04;;;;;;;4.07;1.20;;;18.30;99.90;;;;;;5011961;28;20170;-81
2021/07/29 02:04:30;;;;;;;2.33;1.40;;;18.30;99.90;;;;;;5011782;28;20173;-81
2021/07/29 02:06:56;;;;;;;1.90;1.20;;;18.30;99.90;;;;;;5012889;28;20589;-81
2021/07/29 02:09:22;;;;;;;1.70;1.23;;;18.30;99.90;;;;;;5012679;28;20936;-81
2021/07/29 02:11:52;;;;;;;4.93;1.17;;;18.30;99.90;;;;;;5011739;28;20174;-80
2021/07/29 02:14:21;;;;;;;3.37;1.10;;;18.30;99.90;;;;;;5011631;28;20181;-81
2021/07/29 02:16:48;;;;;;;1.93;1.00;;;18.30;99.90;;;;;;5011353;28;20721;-80
2021/07/29 02:19:14;;;;;;;2.73;1.00;;;18.30;99.90;;;;;;5011306;28;21028;-81
2021/07/29 02:21:42;;;;;;;1.97;1.20;;;18.30;99.90;;;;;;5011798;28;20589;-81
2021/07/29 02:24:08;;;;;;;2.37;1.27;;;18.30;99.90;;;;;;5011387;28;20170;-81
2021/07/29 02:26:33;;;;;;;1.90;1.33;;;18.30;99.90;;;;;;4993857;28;21024;-80
2021/07/29 02:28:59;;;;;;;2.27;1.20;;;18.30;99.90;;;;;;5011140;28;20174;-81
2021/07/29 02:31:24;;;;;;;2.23;1.20;;;18.30;99.90;;;;;;5011340;28;20175;-81
2021/07/29 02:33:50;;;;;;;3.13;1.83;;;18.30;99.90;;;;;;5012314;28;20257;-80
2021/07/29 02:36:16;;;;;;;3.90;1.60;;;18.40;99.90;;;;;;5014821;28;20210;-80
2021/07/29 02:38:42;;;;;;;3.10;1.50;;;18.40;99.90;;;;;;5014934;28;20505;-80
2021/07/29 02:41:07;;;;;;;2.77;1.30;;;18.40;99.90;;;;;;5014909;28;20158;-81
2021/07/29 02:43:33;;;;;;;3.47;1.33;;;18.40;99.90;;;;;;5017750;28;20166;-81
2021/07/29 02:45:58;;;;;;;2.43;1.40;;;18.40;99.90;;;;;;5015183;28;20198;-81
2021/07/29 02:48:24;;;;;;;3.27;1.50;;;18.30;99.90;;;;;;5006436;28;20179;-81
2021/07/29 02:50:54;;;;;;;2.00;1.30;;;18.30;99.90;;;;;;5012972;28;20174;-80
2021/07/29 02:53:21;;;;;;;3.63;1.57;;;18.30;99.90;;;;;;5014286;28;20202;-80
2021/07/29 02:55:47;;;;;;;3.40;1.27;;;18.20;99.90;;;;;;5006101;28;20635;-81
2021/07/29 02:58:13;;;;;;;2.07;1.63;;;18.20;99.90;;;;;;5014330;28;21204;-81
2021/07/29 03:00:39;;;;;;;1.70;1.23;;;18.20;99.90;;;;;;5029125;28;20597;-81
2021/07/29 03:03:04;;;;;;;1.90;1.47;;;18.10;99.90;;;;;;5021635;28;20273;-81
2021/07/29 03:05:30;;;;;;;3.97;1.57;;;18.10;99.90;;;;;;5010861;28;20198;-81
2021/07/29 03:07:56;;;;;;;2.50;1.53;;;18.00;99.90;;;;;;5009392;28;20765;-80
2021/07/29 03:10:21;;;;;;;2.30;1.70;;;18.00;99.90;;;;;;5013646;28;20162;-81
2021/07/29 03:12:47;;;;;;;3.73;2.27;;;18.00;99.90;;;;;;5014407;28;20174;-81
2021/07/29 03:15:13;;;;;;;3.20;1.97;;;18.00;99.90;;;;;;5014286;28;20205;-80
2021/07/29 03:17:38;;;;;;;4.80;1.80;;;17.90;99.90;;;;;;5014166;28;20174;-81
2021/07/29 03:20:05;;;;;;;2.30;1.97;;;17.90;99.90;;;;;;5015826;28;20162;-81
2021/07/29 03:22:30;;;;;;;2.80;1.87;;;17.90;99.90;;;;;;5016511;28;20553;-81
2021/07/29 03:24:56;;;;;;;2.67;1.90;;;18.00;99.90;;;;;;5014380;28;20668;-81
2021/07/29 03:27:22;;;;;;;3.07;2.03;;;17.90;99.90;;;;;;5013996;28;20225;-81
2021/07/29 03:29:47;;;;;;;2.73;1.50;;;17.90;99.90;;;;;;5013914;28;20527;-81
2021/07/29 03:32:13;;;;;;;2.30;2.10;;;17.90;99.90;;;;;;5014039;28;20166;-81
2021/07/29 03:34:39;;;;;;;2.03;1.43;;;17.90;99.90;;;;;;5014267;28;20181;-81
2021/07/29 03:37:05;;;;;;;3.43;1.47;;;17.90;99.90;;;;;;5013613;28;20206;-81
2021/07/29 03:39:31;;;;;;;3.30;1.60;;;17.90;99.90;;;;;;5013938;28;20568;-82
2021/07/29 03:41:56;;;;;;;3.20;1.90;;;17.90;99.90;;;;;;5013886;28;20646;-81
2021/07/29 03:44:22;;;;;;;4.17;1.83;;;17.90;99.90;;;;;;5013590;28;21015;-82
2021/07/29 03:46:48;;;;;;;4.77;1.70;;;17.90;99.90;;;;;;5013625;28;20708;-82
2021/07/29 03:49:13;;;;;;;2.83;1.60;;;17.90;99.90;;;;;;5013660;28;20185;-82
2021/07/29 03:51:39;;;;;;;5.57;2.30;;;17.90;99.90;;;;;;5012861;28;20171;-81
2021/07/29 03:54:05;;;;;;;3.70;1.50;;;17.90;99.90;;;;;;5012483;28;20169;-81
2021/07/29 03:56:30;;;;;;;4.40;1.80;;;17.90;99.90;;;;;;5013986;28;20203;-81
2021/07/29 03:58:56;;;;;;;3.43;1.80;;;17.90;99.90;;;;;;5016570;28;20219;-81
2021/07/29 04:01:22;;;;;;;2.07;1.67;;;17.90;99.90;;;;;;5012450;28;20190;-80
2021/07/29 04:03:47;;;;;;;5.20;1.40;;;18.00;99.90;;;;;;5012281;28;20216;-80
2021/07/29 04:06:17;;;;;;;2.63;1.43;;;18.10;99.90;;;;;;5013453;28;20575;-80
2021/07/29 04:08:42;;;;;;;2.37;1.63;;;18.10;99.90;;;;;;5012023;28;20181;-80
2021/07/29 04:11:08;;;;;;;2.00;1.20;;;18.10;99.90;;;;;;5013492;28;20561;-80
2021/07/29 04:13:34;;;;;;;1.90;1.27;;;18.20;99.90;;;;;;5013395;28;20631;-81
2021/07/29 04:16:04;;;;;;;4.33;1.70;;;18.20;99.90;;;;;;5028230;28;20237;-80
2021/07/29 04:18:32;;;;;;;3.77;1.50;;;18.20;99.90;;;;;;5012812;28;20175;-81
2021/07/29 04:20:59;;;;;;;2.47;1.20;;;18.30;99.90;;;;;;5013351;28;21005;-81
2021/07/29 04:23:26;;;;;;;2.27;1.30;;;18.30;99.90;;;;;;5013033;28;20592;-82
2021/07/29 04:25:51;;;;;;;5.10;1.73;;;18.30;99.90;;;;;;5013196;28;20597;-81
2021/07/29 04:28:17;;;;;;;2.37;1.70;;;18.30;99.90;;;;;;5012767;28;20570;-81
2021/07/29 04:30:43;;;;;;;2.20;1.40;;;18.30;99.90;;;;;;5013149;28;20561;-81
2021/07/29 04:33:09;;;;;;;1.60;1.30;;;18.40;99.90;;;;;;5013853;28;20163;-81
2021/07/29 04:35:37;;;;;;;2.13;1.50;;;18.40;99.90;;;;;;5016723;28;20210;-81
2021/07/29 04:38:03;;;;;;;3.00;1.13;;;18.40;99.90;;;;;;5012699;28;20656;-82
2021/07/29 04:40:29;;;;;;;3.50;1.70;;;18.40;99.90;;;;;;5012948;28;20664;-81
2021/07/29 04:42:55;;;;;;;1.90;1.27;;;18.50;99.90;;;;;;5011567;28;21137;-81
2021/07/29 04:45:20;;;;;;;11.77;2.70;;;18.50;99.90;;;;;;5012704;28;20178;-81
2021/07/29 04:47:46;;;;;;;4.57;2.60;;;18.50;99.90;;;;;;5027611;28;20217;-81
2021/07/29 04:50:12;;;;;;;7.77;2.07;;;18.50;99.90;;;;;;5012817;28;20257;-81
2021/07/29 04:52:37;;;;;;;5.80;2.33;;;18.60;99.90;;;;;;5012737;28;20213;-81
2021/07/29 04:55:03;;;;;;;3.90;1.93;;;18.60;99.90;;;;;;5012623;28;20289;-82
2021/07/29 04:57:29;;;;;;;4.20;1.83;;;18.60;99.90;;;;;;5011847;28;20280;-82
2021/07/29 04:59:54;;;;;;;2.20;1.90;;;18.70;99.90;;;;;;5012186;28;20566;-81
2021/07/29 05:02:20;;;;;;;2.93;1.50;;;18.70;99.90;;;;;;4994946;28;20190;-81
2021/07/29 05:04:46;;;;;;;3.90;2.30;;;18.70;99.90;;;;;;5012244;28;20635;-81
2021/07/29 05:07:12;;;;;;;4.23;2.00;;;18.80;99.90;;;;;;5012581;28;20553;-81
2021/07/29 05:09:38;;;;;;;2.73;1.50;;;18.80;99.90;;;;;;5012159;28;20253;-81
2021/07/29 05:12:04;;;;;;;2.33;1.50;;;18.90;99.90;;;;;;5014202;28;20608;-81
2021/07/29 05:14:30;;;;;;;2.47;1.50;;;18.90;99.90;;;;;;5011117;28;20170;-81
2021/07/29 05:17:00;;;;;;;1.87;1.33;;;19.00;99.90;;;;;;5010009;28;20981;-80
2021/07/29 05:19:26;;;;;;;2.80;1.93;;;19.00;99.90;;;;;;5000731;28;20285;-80
2021/07/29 05:21:52;;;;;;;3.27;1.60;;;19.10;99.90;;;;;;5017772;28;20597;-79
2021/07/29 05:24:18;;;;;;;2.43;1.60;;;19.20;99.90;;;;;;5011054;28;20177;-79
2021/07/29 05:26:44;;;;;;;3.43;1.50;;;19.20;99.90;;;;;;5011824;28;20597;-79
2021/07/29 05:29:10;;;;;;;2.77;1.53;;;19.30;99.90;;;;;;5008416;28;20265;-79
2021/07/29 05:31:37;;;;;;;3.60;1.77;;;19.30;99.90;;;;;;5005619;28;20186;-78
2021/07/29 05:34:04;;;;;;;2.57;1.33;;;19.50;99.90;;;;;;5014543;28;20183;-78
2021/07/29 05:36:29;;;;;;;2.67;1.57;;;19.60;99.90;;;;;;4991840;28;20629;-78
2021/07/29 05:38:55;;;;;;;5.00;1.83;;;19.70;99.90;;;;;;5001779;28;20590;-78
2021/07/29 05:41:21;;;;;;;5.00;1.60;;;19.80;99.90;;;;;;5033027;28;20166;-79
2021/07/29 05:43:46;;;;;;;5.27;2.20;;;19.90;99.90;;;;;;5002634;28;20170;-79
2021/07/29 05:46:13;;;;;;;3.20;1.30;;;20.00;99.90;;;;;;5062621;23;20718;-81
2021/07/29 05:48:40;;;;;;;2.63;2.30;;;20.20;99.90;;;;;;5054245;28;20177;-82
2021/07/29 05:51:06;;;;;;;3.83;1.37;;;20.30;99.90;;;;;;5059869;28;20944;-81
2021/07/29 05:53:31;;;;;;;1.40;1.30;;;20.40;99.90;;;;;;5064058;28;20931;-81
2021/07/29 05:55:59;;;;;;;1.60;1.00;;;20.60;99.90;;;;;;5054592;28;20630;-81
2021/07/29 05:58:25;;;;;;;2.30;1.20;;;20.80;99.90;;;;;;5076443;28;20778;-80
2021/07/29 06:00:51;;;;;;;3.20;1.30;;;20.90;99.90;;;;;;5075456;28;20680;-80
2021/07/29 06:03:17;;;;;;;3.60;1.83;;;21.20;99.90;;;;;;5068565;28;20610;-82
2021/07/29 06:05:43;;;;;;;3.70;1.30;;;21.70;99.90;;;;;;5032820;28;20193;-82
2021/07/29 06:08:08;;;;;;;4.57;1.40;;;22.00;99.90;;;;;;5036853;28;20559;-81
2021/07/29 06:10:34;;;;;;;3.57;1.50;;;22.30;99.90;;;;;;5038336;28;20165;-81
2021/07/29 06:13:02;;;;;;;5.87;1.00;;;22.80;99.90;;;;;;5039755;28;20197;-81
2021/07/29 06:15:28;;;;;;;4.40;1.47;;;23.50;99.90;;;;;;5037688;28;20657;-81
2021/07/29 06:17:59;;;;;;;3.40;0.80;;;23.90;99.90;;;;;;5057635;28;20165;-81
2021/07/29 06:20:26;;;;;;;4.50;1.00;;;24.10;99.90;;;;;;5057367;28;20199;-81
2021/07/29 06:22:51;;;;;;;2.40;1.20;;;24.40;99.90;;;;;;5057003;28;20559;-81
2021/07/29 06:25:20;;;;;;;3.00;1.10;;;25.00;99.90;;;;;;5058779;28;20630;-81
2021/07/29 06:27:48;;;;;;;2.60;1.00;;;25.50;99.90;;;;;;5056687;28;20171;-81
2021/07/29 06:30:14;;;;;;;3.50;1.57;;;25.90;99.90;;;;;;5058244;28;20959;-82
2021/07/29 06:32:40;;;;;;;2.87;0.90;;;26.40;99.90;;;;;;5055150;28;20579;-82
2021/07/29 06:35:07;;;;;;;2.53;0.70;;;27.10;99.90;;;;;;5037470;28;20611;-81
2021/07/29 06:37:33;;;;;;;2.10;1.00;;;27.60;99.90;;;;;;5053789;28;20283;-81
2021/07/29 06:39:59;;;;;;;3.03;0.80;;;28.10;99.90;;;;;;5040017;28;20559;-82
2021/07/29 06:42:26;;;;;;;3.83;1.20;;;28.40;99.90;;;;;;5047552;28;20579;-80
2021/07/29 06:44:52;;;;;;;3.00;0.80;;;28.60;99.90;;;;;;5069551;28;20580;-79
2021/07/29 06:47:18;;;;;;;4.03;1.00;;;28.60;99.90;;;;;;5049184;28;20574;-82
2021/07/29 06:49:45;;;;;;;2.67;1.07;;;28.60;99.90;;;;;;5067950;28;20558;-82
2021/07/29 06:52:11;;;;;;;3.73;0.90;;;28.50;99.90;;;;;;5067845;28;20646;-82
2021/07/29 06:54:38;;;;;;;3.83;1.00;;;28.40;99.90;;;;;;5051859;28;20609;-81
2021/07/29 06:57:05;;;;;;;2.80;0.93;;;28.30;99.90;;;;;;5069332;28;20630;-82
2021/07/29 06:59:30;;;;;;;3.70;0.90;;;28.20;99.90;;;;;;5066771;28;20662;-82
2021/07/29 07:01:56;;;;;;;1.30;0.70;;;27.90;99.90;;;;;;5049775;28;20574;-81
2021/07/29 07:04:22;;;;;;;6.30;1.00;;;27.80;99.90;;;;;;5067164;28;20161;-82
2021/07/29 07:06:47;;;;;;;3.40;1.27;;;27.70;99.90;;;;;;5064639;28;20200;-82
2021/07/29 07:09:13;;;;;;;1.83;0.80;;;27.60;99.90;;;;;;5061412;28;20169;-82
2021/07/29 07:11:39;;;;;;;1.90;0.80;;;27.50;99.90;;;;;;5062922;28;20541;-82
2021/07/29 07:14:06;;;;;;;3.50;0.70;;;27.50;99.90;;;;;;5040024;28;20176;-82
2021/07/29 07:16:33;;;;;;;2.33;1.00;;;27.40;99.90;;;;;;5064498;28;20630;-81
2021/07/29 07:18:59;;;;;;;2.47;0.90;;;27.50;99.90;;;;;;5051081;28;20582;-82
2021/07/29 07:21:25;;;;;;;1.60;0.80;;;27.50;99.90;;;;;;5064850;28;20659;-82
2021/07/29 07:23:51;;;;;;;2.70;0.80;;;27.50;99.90;;;;;;5043856;28;20578;-82
2021/07/29 07:26:20;;;;;;;4.90;1.10;;;27.50;99.40;;;;;;5008685;28;20623;-82
2021/07/29 07:28:47;;;;;;;3.07;1.23;;;27.50;98.90;;;;;;5022088;28;20670;-81
2021/07/29 07:31:13;;;;;;;3.57;0.90;;;27.50;98.90;;;;;;5057504;28;20567;-82
2021/07/29 07:33:39;;;;;;;4.60;1.10;;;27.40;98.10;;;;;;5056749;28;20574;-82
2021/07/29 07:36:05;;;;;;;8.37;1.33;;;27.20;97.60;;;;;;5022154;28;20635;-82
2021/07/29 07:38:30;;;;;;;1.60;0.80;;;27.10;97.60;;;;;;5058608;28;20297;-82
2021/07/29 07:40:56;;;;;;;2.50;1.00;;;27.00;97.60;;;;;;5057871;28;20165;-81
2021/07/29 07:43:22;;;;;;;3.43;1.03;;;26.80;97.10;;;;;;5062721;28;20219;-82
2021/07/29 07:45:49;;;;;;;4.07;0.70;;;26.70;97.10;;;;;;5060879;28;21010;-82
2021/07/29 07:48:15;;;;;;;2.10;0.67;;;26.60;97.20;;;;;;5060134;28;20568;-82
2021/07/29 07:50:42;;;;;;;2.40;1.00;;;26.60;97.50;;;;;;5046615;28;20575;-82
2021/07/29 07:53:07;;;;;;;4.07;1.00;;;26.60;97.50;;;;;;5030795;28;20645;-82
2021/07/29 07:55:36;;;;;;;3.50;1.10;;;26.70;97.50;;;;;;5065851;28;20631;-81
2021/07/29 07:58:02;;;;;;;1.93;0.87;;;26.80;97.00;;;;;;5030673;28;20187;-82
2021/07/29 08:00:28;;;;;;;2.33;0.90;;;26.80;96.90;;;;;;5065329;28;20651;-81
2021/07/29 08:02:53;;;;;;;4.33;1.10;;;26.80;96.50;;;;;;5064754;28;20180;-82
2021/07/29 08:05:19;;;;;;;2.60;0.80;;;26.80;96.50;;;;;;5048529;28;20192;-82
2021/07/29 08:07:45;;;;;;;2.77;0.90;;;26.90;96.40;;;;;;5066848;28;20165;-82
2021/07/29 08:10:11;;;;;;;1.80;0.80;;;27.10;96.10;;;;;;5066583;28;20212;-82
2021/07/29 08:12:38;;;;;;;1.50;0.60;;;27.20;95.70;;;;;;5068799;28;20169;-81
2021/07/29 08:15:04;;;;;;;4.10;0.93;;;27.30;95.60;;;;;;5049043;28;20586;-82
2021/07/29 08:17:30;;;;;;;3.13;0.80;;;27.40;95.00;;;;;;5048823;28;20658;-82
2021/07/29 08:19:55;;;;;;;1.90;0.83;;;27.50;94.90;;;;;;5066082;28;20648;-82
2021/07/29 08:22:21;;;;;;;3.40;0.70;;;27.60;94.10;;;;;;5045144;28;20178;-82
2021/07/29 08:24:47;;;;;;;1.80;0.80;;;27.80;94.60;;;;;;5059974;28;20177;-82
2021/07/29 08:27:12;;;;;;;1.73;0.60;;;28.30;95.00;;;;;;5043517;28;20245;-82
2021/07/29 08:29:38;;;;;;;2.17;0.80;;;28.60;94.70;;;;;;5040562;28;20180;-82
2021/07/29 08:32:04;;;;;;;3.70;1.00;;;29.20;94.50;;;;;;5040750;28;20181;-82
2021/07/29 08:34:30;;;;;;;1.40;0.70;;;29.90;94.30;;;;;;5039175;28;20184;-82
2021/07/29 08:36:56;;;;;;;1.70;0.70;;;30.70;94.50;;;;;;5055828;28;20635;-82
2021/07/29 08:39:22;;;;;;;1.90;0.67;;;31.30;93.10;;;;;;5054332;28;20244;-82
2021/07/29 08:41:48;;;;;;;3.30;1.00;;;31.70;90.80;;;;;;5037384;28;20176;-83
2021/07/29 08:44:14;;;;;;;4.63;0.90;;;32.10;89.60;;;;;;5055844;28;20638;-81
2021/07/29 08:46:46;;;;;;;1.90;0.73;;;32.10;85.60;;;;;;5055522;28;20748;-82
2021/07/29 08:49:14;;;;;;;2.90;0.80;;;32.20;82.00;;;;;;5053736;28;20166;-82
2021/07/29 08:51:40;;;;;;;3.60;1.20;;;32.60;82.70;;;;;;5052299;28;21193;-82
2021/07/29 08:54:11;;;;;;;3.10;0.80;;;33.10;83.30;;;;;;5053005;28;20558;-82
2021/07/29 08:56:37;;;;;;;1.70;0.80;;;33.60;82.40;;;;;;5052566;28;20203;-82
2021/07/29 08:59:07;;;;;;;1.70;0.90;;;33.90;76.60;;;;;;5018524;28;20593;-82
2021/07/29 09:01:39;;;;;;;2.53;0.80;;;33.70;73.50;;;;;;5056171;28;20563;-82
2021/07/29 09:04:11;;;;;;;3.00;0.80;;;33.60;69.10;;;;;;5053301;28;21030;-83
2021/07/29 09:06:58;;;;;;;2.47;0.80;;;33.40;68.00;;;;;;5053295;28;20998;-82
2021/07/29 09:09:42;;;;;;;3.73;0.70;;;33.40;66.10;;;;;;5035447;28;20918;-82
2021/07/29 09:12:19;;;;;;;2.27;0.70;;;33.20;61.70;;;;;;5037402;28;20577;-82
2021/07/29 09:14:49;;;;;;;4.10;0.80;;;32.90;65.30;;;;;;5055352;28;21521;-82
2021/07/29 09:17:15;;;;;;;2.57;0.70;;;32.50;64.60;;;;;;5056033;28;20624;-82
2021/07/29 09:19:46;;;;;;;7.20;0.80;;;32.20;65.60;;;;;;5055072;28;20622;-82
2021/07/29 09:22:21;;;;;;;2.07;0.60;;;32.40;67.20;;;;;;5035728;28;20575;-81
2021/07/29 09:24:59;;;;;;;3.10;0.90;;;32.90;68.10;;;;;;5052102;28;20625;-82
2021/07/29 09:27:25;;;;;;;3.70;1.67;;;33.40;67.10;;;;;;5051843;28;21014;-82
2021/07/29 09:29:51;;;;;;;2.03;0.80;;;33.80;66.20;;;;;;5051633;28;20938;-82
2021/07/29 09:32:17;;;;;;;1.73;1.03;;;34.30;65.20;;;;;;5053105;28;20690;-82
2021/07/29 09:34:49;;;;;;;1.17;0.60;;;34.70;63.20;;;;;;5051662;28;20175;-82
2021/07/29 09:37:16;;;;;;;1.93;0.70;;;35.30;62.20;;;;;;5051954;28;20623;-82
2021/07/29 09:39:43;;;;;;;1.70;0.80;;;35.70;60.60;;;;;;5054471;28;20594;-82
2021/07/29 09:42:16;;;;;;;3.27;0.90;;;36.10;60.20;;;;;;5051612;28;20967;-82
2021/07/29 09:44:43;;;;;;;2.80;2.10;;;36.40;57.90;;;;;;5051901;28;20670;-82
2021/07/29 09:47:09;;;;;;;4.90;1.60;;;36.20;56.60;;;;;;5051454;28;20978;-82
2021/07/29 09:49:36;;;;;;;1.77;0.90;;;35.80;55.00;;;;;;5033700;28;20646;-82
2021/07/29 09:52:03;;;;;;;2.17;0.83;;;35.50;54.90;;;;;;5051956;28;20651;-82
2021/07/29 09:54:29;;;;;;;2.60;0.70;;;35.20;54.70;;;;;;5051923;28;21137;-82
2021/07/29 09:56:58;;;;;;;2.07;1.00;;;35.20;55.10;;;;;;5034650;28;20645;-82
2021/07/29 09:59:23;;;;;;;2.57;0.73;;;35.20;55.20;;;;;;5051832;28;20574;-82
2021/07/29 10:01:51;;;;;;;1.30;0.70;;;34.90;53.60;;;;;;5052304;28;20635;-82
2021/07/29 10:04:23;;;;;;;2.10;0.73;;;34.60;53.30;;;;;;5034563;28;20180;-82
2021/07/29 10:06:51;;;;;;;2.17;0.60;;;34.60;54.10;;;;;;5052364;28;20610;-82
2021/07/29 10:09:19;;;;;;;1.60;0.63;;;34.80;54.10;;;;;;5054359;28;20955;-82
2021/07/29 10:11:48;;;;;;;1.27;0.60;;;35.10;54.20;;;;;;5034420;28;20658;-82
2021/07/29 10:14:46;;;;;;;1.37;0.70;;;35.30;53.50;;;;;;5053597;28;20571;-82
2021/07/29 10:17:12;;;;;;;1.97;0.70;;;35.00;52.10;;;;;;5054462;28;20624;-82
2021/07/29 10:20:20;;;;;;;1.90;0.60;;;34.30;50.60;;;;;;5054842;28;20553;-82
2021/07/29 10:22:47;;;;;;;2.00;0.70;;;33.60;49.60;;;;;;5053659;28;20173;-82
2021/07/29 10:25:13;;;;;;;3.00;1.20;;;33.00;50.30;;;;;;5056169;28;20603;-82
2021/07/29 10:27:41;;;;;;;3.63;1.40;;;32.40;50.60;;;;;;5056513;28;20594;-82
2021/07/29 10:30:19;;;;;;;2.90;1.00;;;31.80;50.70;;;;;;5039232;28;20917;-82
2021/07/29 10:32:49;;;;;;;3.23;0.90;;;31.20;50.70;;;;;;5056945;28;20574;-82
2021/07/29 10:35:30;;;;;;;4.03;1.20;;;30.70;51.40;;;;;;5058075;28;20607;-82
2021/07/29 10:37:59;;;;;;;4.13;2.27;;;30.20;51.90;;;;;;5039621;28;21165;-82
2021/07/29 10:40:37;;;;;;;2.10;0.80;;;29.70;52.30;;;;;;5061471;28;20679;-82
2021/07/29 10:43:39;;;;;;;1.90;0.90;;;29.30;52.90;;;;;;5044456;28;20591;-81
2021/07/29 10:46:05;;;;;;;2.47;0.90;;;28.90;53.50;;;;;;4949435;28;20746;-82
2021/07/29 10:51:18;;;;;;;5.73;1.10;;;29.20;55.80;;;;;;5036992;28;20567;-82
2021/07/29 10:53:48;;;;;;;3.30;0.90;;;29.70;56.90;;;;;;5018658;28;20572;-82
2021/07/29 10:56:15;;;;;;;3.63;1.50;;;30.30;57.30;;;;;;5037190;28;21031;-82
2021/07/29 10:58:46;;;;;;;2.80;1.10;;;30.80;57.30;;;;;;5041165;28;20561;-82
2021/07/29 11:01:14;;;;;;;1.50;0.80;;;31.20;56.60;;;;;;5039965;28;21143;-82
2021/07/29 11:03:50;;;;;;;2.10;0.80;;;31.40;55.80;;;;;;5041456;28;20564;-82
2021/07/29 11:06:40;;;;;;;2.37;0.90;;;31.40;54.30;;;;;;5022854;28;20615;-82
2021/07/29 11:09:13;;;;;;;2.50;0.80;;;31.10;53.30;;;;;;5040117;28;20568;-82
2021/07/29 11:11:40;;;;;;;2.60;0.80;;;30.80;52.60;;;;;;5020199;28;20576;-82
2021/07/29 11:14:07;;;;;;;3.17;1.30;;;30.70;53.90;;;;;;5038754;28;20560;-81
2021/07/29 11:16:34;;;;;;;3.13;0.80;;;30.80;54.80;;;;;;5042634;28;20632;-82
2021/07/29 11:19:02;;;;;;;2.57;0.70;;;31.10;56.10;;;;;;5043598;28;20581;-82
2021/07/29 11:21:28;;;;;;;2.67;0.80;;;31.40;55.80;;;;;;5043254;28;20616;-82
2021/07/29 11:23:54;;;;;;;2.40;0.80;;;31.70;55.50;;;;;;5026203;28;20565;-82
2021/07/29 11:26:20;;;;;;;3.10;0.80;;;31.80;54.10;;;;;;5042749;28;20603;-82
2021/07/29 11:29:09;;;;;;;1.60;0.80;;;31.70;53.00;;;;;;5044184;28;20219;-82
2021/07/29 11:31:36;;;;;;;2.23;1.13;;;31.50;51.70;;;;;;5046764;28;20260;-82
2021/07/29 11:34:02;;;;;;;2.27;1.10;;;31.10;51.70;;;;;;5029053;28;20583;-82
2021/07/29 11:36:31;;;;;;;2.30;0.90;;;30.70;51.20;;;;;;5049432;28;20640;-82
2021/07/29 11:39:05;;;;;;;3.20;0.70;;;30.20;51.10;;;;;;5051147;28;20602;-82
2021/07/29 11:41:51;;;;;;;2.90;1.37;;;29.60;51.00;;;;;;5051245;28;20569;-82
2021/07/29 11:44:17;;;;;;;2.03;1.20;;;29.10;51.80;;;;;;5030062;28;20626;-82
2021/07/29 11:46:57;;;;;;;3.70;1.30;;;29.00;53.10;;;;;;5038460;28;21206;-79
2021/07/29 11:49:23;;;;;;;4.03;1.07;;;29.00;54.80;;;;;;5033574;28;20581;-79
2021/07/29 11:52:03;;;;;;;3.57;1.00;;;29.10;54.00;;;;;;5032227;28;20590;-79
2021/07/29 11:54:31;;;;;;;2.40;0.90;;;29.10;53.40;;;;;;5033541;28;20576;-79
2021/07/29 11:57:00;;;;;;;2.20;0.70;;;29.10;53.50;;;;;;5032031;28;20636;-79
2021/07/29 11:59:37;;;;;;;2.60;1.43;;;29.10;53.20;;;;;;5033212;28;20671;-79
2021/07/29 12:02:04;;;;;;;3.00;1.83;;;29.00;52.60;;;;;;5033330;28;20556;-79
2021/07/29 12:04:38;;;;;;;2.27;1.20;;;28.90;52.90;;;;;;5036215;28;20560;-78
2021/07/29 12:07:04;;;;;;;3.00;1.00;;;28.70;52.80;;;;;;5032790;28;20601;-79
2021/07/29 12:09:32;;;;;;;4.10;1.60;;;28.50;52.80;;;;;;5031887;28;20573;-79
2021/07/29 12:11:59;;;;;;;3.23;2.10;;;28.40;53.00;;;;;;5015355;28;20599;-79
2021/07/29 12:14:26;;;;;;;4.30;2.33;;;28.20;53.20;;;;;;5033300;28;21122;-79
2021/07/29 12:16:53;;;;;;;3.53;1.67;;;28.00;53.20;;;;;;5032759;28;20639;-79
2021/07/29 12:19:20;;;;;;;2.37;1.63;;;27.80;53.20;;;;;;5033192;28;20969;-79
2021/07/29 12:21:47;;;;;;;4.73;1.40;;;27.70;54.00;;;;;;5033517;28;20901;-79
2021/07/29 12:24:14;;;;;;;3.40;1.23;;;27.80;55.40;;;;;;5033003;28;20567;-79
2021/07/29 12:26:40;;;;;;;9.13;2.23;;;27.90;55.40;;;;;;5032974;28;20601;-78
2021/07/29 12:29:06;;;;;;;4.33;1.43;;;27.90;55.00;;;;;;5014961;28;20581;-79
2021/07/29 12:31:33;;;;;;;3.57;2.30;;;27.90;54.80;;;;;;5033055;28;21124;-79
2021/07/29 12:34:04;;;;;;;5.90;2.13;;;27.90;55.20;;;;;;5032696;28;20523;-79
2021/07/29 12:36:48;;;;;;;3.00;1.20;;;27.90;54.70;;;;;;5032681;28;20628;-78
2021/07/29 12:39:18;;;;;;;4.00;1.23;;;27.90;54.90;;;;;;5015115;28;20576;-79
2021/07/29 12:41:49;;;;;;;3.33;1.13;;;27.90;55.10;;;;;;5034485;28;20576;-79
2021/07/29 12:44:19;;;;;;;3.33;0.90;;;28.00;55.40;;;;;;5032618;28;20646;-79
2021/07/29 12:46:46;;;;;;;4.63;0.90;;;27.90;55.00;;;;;;5032221;28;20624;-79
2021/07/29 12:49:13;;;;;;;3.93;0.90;;;27.90;54.70;;;;;;5014533;28;20607;-79
2021/07/29 12:51:47;;;;;;;2.53;0.90;;;27.90;54.80;;;;;;5032601;28;20575;-79
2021/07/29 12:54:21;;;;;;;7.83;1.00;;;27.80;54.90;;;;;;5032278;28;20899;-79